sensor_id;sensor_type;location;lat;lon;timestamp;P1;durP1;ratioP1;P2;durP2;ratioP2
29854;SDS011;16733;48.738;9.106;2022-07-29T00:00:43;4.03;;;2.40;;
29854;SDS011;16733;48.738;9.106;2022-07-29T00:03:09;5.60;;;2.53;;
29854;SDS011;16733;48.738;9.106;2022-07-29T00:05:41;3.83;;;2.60;;
29854;SDS011;16733;48.738;9.106;2022-07-29T00:08:07;5.53;;;2.88;;
29854;SDS011;16733;48.738;9.106;2022-07-29T00:10:33;3.47;;;2.55;;
29854;SDS011;16733;48.738;9.106;2022-07-29T00:16:21;6.07;;;2.67;;
29854;SDS011;16733;48.738;9.106;2022-07-29T00:18:48;4.05;;;2.53;;
29854;SDS011;16733;48.738;9.106;2022-07-29T00:21:13;2.60;;;2.40;;
29854;SDS011;16733;48.738;9.106;2022-07-29T00:23:39;3.50;;;2.53;;
29854;SDS011;16733;48.738;9.106;2022-07-29T00:26:05;3.70;;;2.80;;
29854;SDS011;16733;48.738;9.106;2022-07-29T00:28:30;3.42;;;2.60;;
29854;SDS011;16733;48.738;9.106;2022-07-29T00:34:18;4.55;;;2.55;;
29854;SDS011;16733;48.738;9.106;2022-07-29T00:37:02;4.93;;;2.03;;
29854;SDS011;16733;48.738;9.106;2022-07-29T00:42:50;4.93;;;2.40;;
29854;SDS011;16733;48.738;9.106;2022-07-29T00:45:17;3.17;;;2.42;;
29854;SDS011;16733;48.738;9.106;2022-07-29T00:51:05;3.78;;;2.13;;
29854;SDS011;16733;48.738;9.106;2022-07-29T00:53:32;3.40;;;2.45;;
29854;SDS011;16733;48.738;9.106;2022-07-29T00:56:00;5.53;;;1.95;;
29854;SDS011;16733;48.738;9.106;2022-07-29T00:58:26;2.20;;;2.00;;
29854;SDS011;16733;48.738;9.106;2022-07-29T01:00:51;4.25;;;2.08;;
29854;SDS011;16733;48.738;9.106;2022-07-29T01:03:18;6.57;;;2.25;;
29854;SDS011;16733;48.738;9.106;2022-07-29T01:05:47;2.38;;;2.10;;
29854;SDS011;16733;48.738;9.106;2022-07-29T01:08:13;2.40;;;1.80;;
29854;SDS011;16733;48.738;9.106;2022-07-29T01:17:26;3.22;;;2.03;;
29854;SDS011;16733;48.738;9.106;2022-07-29T01:31:05;4.07;;;1.90;;
29854;SDS011;16733;48.738;9.106;2022-07-29T01:36:55;2.63;;;1.95;;
29854;SDS011;16733;48.738;9.106;2022-07-29T01:39:32;2.50;;;2.08;;
29854;SDS011;16733;48.738;9.106;2022-07-29T01:45:37;3.13;;;1.60;;
29854;SDS011;16733;48.738;9.106;2022-07-29T01:50:58;2.53;;;1.98;;
29854;SDS011;16733;48.738;9.106;2022-07-29T01:53:31;2.80;;;1.73;;
29854;SDS011;16733;48.738;9.106;2022-07-29T01:59:29;1.77;;;1.67;;
29854;SDS011;16733;48.738;9.106;2022-07-29T02:01:57;3.78;;;1.60;;
29854;SDS011;16733;48.738;9.106;2022-07-29T02:04:23;2.53;;;1.75;;
29854;SDS011;16733;48.738;9.106;2022-07-29T02:06:50;2.60;;;1.67;;
29854;SDS011;16733;48.738;9.106;2022-07-29T02:09:19;3.13;;;1.42;;
29854;SDS011;16733;48.738;9.106;2022-07-29T02:11:48;2.50;;;1.80;;
29854;SDS011;16733;48.738;9.106;2022-07-29T02:14:18;4.95;;;1.75;;
29854;SDS011;16733;48.738;9.106;2022-07-29T02:16:46;3.00;;;1.90;;
29854;SDS011;16733;48.738;9.106;2022-07-29T02:19:15;6.35;;;1.90;;
29854;SDS011;16733;48.738;9.106;2022-07-29T02:25:05;1.58;;;1.30;;
29854;SDS011;16733;48.738;9.106;2022-07-29T02:30:55;1.92;;;1.75;;
29854;SDS011;16733;48.738;9.106;2022-07-29T02:33:27;2.72;;;1.75;;
29854;SDS011;16733;48.738;9.106;2022-07-29T02:35:56;5.80;;;1.63;;
29854;SDS011;16733;48.738;9.106;2022-07-29T02:38:23;2.47;;;1.55;;
29854;SDS011;16733;48.738;9.106;2022-07-29T02:41:10;2.53;;;1.70;;
29854;SDS011;16733;48.738;9.106;2022-07-29T02:43:38;3.67;;;1.83;;
29854;SDS011;16733;48.738;9.106;2022-07-29T02:46:05;1.85;;;1.48;;
29854;SDS011;16733;48.738;9.106;2022-07-29T02:48:37;1.85;;;1.55;;
29854;SDS011;16733;48.738;9.106;2022-07-29T02:51:08;1.98;;;1.73;;
29854;SDS011;16733;48.738;9.106;2022-07-29T02:53:42;1.77;;;1.40;;
29854;SDS011;16733;48.738;9.106;2022-07-29T02:56:13;2.72;;;1.63;;
29854;SDS011;16733;48.738;9.106;2022-07-29T02:58:42;2.55;;;1.88;;
29854;SDS011;16733;48.738;9.106;2022-07-29T03:04:39;1.88;;;1.67;;
29854;SDS011;16733;48.738;9.106;2022-07-29T03:10:30;3.97;;;2.00;;
29854;SDS011;16733;48.738;9.106;2022-07-29T03:12:57;2.15;;;1.80;;
29854;SDS011;16733;48.738;9.106;2022-07-29T03:15:23;2.20;;;1.33;;
29854;SDS011;16733;48.738;9.106;2022-07-29T03:18:06;2.63;;;1.70;;
29854;SDS011;16733;48.738;9.106;2022-07-29T03:20:33;1.90;;;1.60;;
29854;SDS011;16733;48.738;9.106;2022-07-29T03:22:58;2.97;;;1.88;;
29854;SDS011;16733;48.738;9.106;2022-07-29T03:25:24;2.88;;;1.90;;
29854;SDS011;16733;48.738;9.106;2022-07-29T03:27:52;1.90;;;1.55;;
29854;SDS011;16733;48.738;9.106;2022-07-29T03:30:17;1.63;;;1.48;;
29854;SDS011;16733;48.738;9.106;2022-07-29T03:32:43;2.80;;;1.65;;
29854;SDS011;16733;48.738;9.106;2022-07-29T03:35:08;4.20;;;1.95;;
29854;SDS011;16733;48.738;9.106;2022-07-29T03:37:34;3.35;;;1.65;;
29854;SDS011;16733;48.738;9.106;2022-07-29T03:40:01;3.03;;;1.73;;
29854;SDS011;16733;48.738;9.106;2022-07-29T03:45:52;2.13;;;1.70;;
29854;SDS011;16733;48.738;9.106;2022-07-29T03:48:20;3.05;;;1.70;;
29854;SDS011;16733;48.738;9.106;2022-07-29T03:54:11;2.15;;;1.80;;
29854;SDS011;16733;48.738;9.106;2022-07-29T03:56:40;6.40;;;1.85;;
29854;SDS011;16733;48.738;9.106;2022-07-29T04:02:33;2.92;;;1.65;;
29854;SDS011;16733;48.738;9.106;2022-07-29T04:05:00;5.15;;;2.00;;
29854;SDS011;16733;48.738;9.106;2022-07-29T04:07:25;2.50;;;1.75;;
29854;SDS011;16733;48.738;9.106;2022-07-29T04:09:51;3.03;;;1.92;;
29854;SDS011;16733;48.738;9.106;2022-07-29T04:12:17;4.88;;;1.67;;
29854;SDS011;16733;48.738;9.106;2022-07-29T04:14:42;2.90;;;1.80;;
29854;SDS011;16733;48.738;9.106;2022-07-29T04:17:08;1.98;;;1.45;;
29854;SDS011;16733;48.738;9.106;2022-07-29T04:19:34;2.83;;;1.48;;
29854;SDS011;16733;48.738;9.106;2022-07-29T04:22:00;3.90;;;1.60;;
29854;SDS011;16733;48.738;9.106;2022-07-29T04:24:26;1.48;;;1.27;;
29854;SDS011;16733;48.738;9.106;2022-07-29T04:26:52;3.28;;;1.77;;
29854;SDS011;16733;48.738;9.106;2022-07-29T04:29:18;2.30;;;1.27;;
29854;SDS011;16733;48.738;9.106;2022-07-29T04:31:44;1.70;;;1.40;;
29854;SDS011;16733;48.738;9.106;2022-07-29T04:34:10;1.90;;;1.50;;
29854;SDS011;16733;48.738;9.106;2022-07-29T04:36:36;2.25;;;1.52;;
29854;SDS011;16733;48.738;9.106;2022-07-29T04:39:02;1.95;;;1.60;;
29854;SDS011;16733;48.738;9.106;2022-07-29T04:41:28;1.27;;;1.17;;
29854;SDS011;16733;48.738;9.106;2022-07-29T04:43:54;1.75;;;1.42;;
29854;SDS011;16733;48.738;9.106;2022-07-29T04:46:20;1.70;;;1.20;;
29854;SDS011;16733;48.738;9.106;2022-07-29T04:48:46;1.35;;;1.25;;
29854;SDS011;16733;48.738;9.106;2022-07-29T04:51:12;2.75;;;1.50;;
29854;SDS011;16733;48.738;9.106;2022-07-29T04:53:38;1.85;;;1.38;;
29854;SDS011;16733;48.738;9.106;2022-07-29T04:56:04;3.75;;;2.40;;
29854;SDS011;16733;48.738;9.106;2022-07-29T04:58:30;1.65;;;1.30;;
29854;SDS011;16733;48.738;9.106;2022-07-29T05:00:56;3.25;;;1.77;;
29854;SDS011;16733;48.738;9.106;2022-07-29T05:03:21;1.55;;;1.40;;
29854;SDS011;16733;48.738;9.106;2022-07-29T05:05:47;1.13;;;1.02;;
29854;SDS011;16733;48.738;9.106;2022-07-29T05:08:12;2.00;;;1.10;;
29854;SDS011;16733;48.738;9.106;2022-07-29T05:10:38;1.73;;;1.40;;
29854;SDS011;16733;48.738;9.106;2022-07-29T05:13:04;1.45;;;1.30;;
29854;SDS011;16733;48.738;9.106;2022-07-29T05:15:31;1.80;;;1.00;;
29854;SDS011;16733;48.738;9.106;2022-07-29T05:17:58;1.92;;;1.10;;
29854;SDS011;16733;48.738;9.106;2022-07-29T05:23:45;2.30;;;1.00;;
29854;SDS011;16733;48.738;9.106;2022-07-29T05:26:11;2.55;;;1.52;;
29854;SDS011;16733;48.738;9.106;2022-07-29T05:28:37;1.40;;;1.10;;
29854;SDS011;16733;48.738;9.106;2022-07-29T05:31:02;1.25;;;1.10;;
29854;SDS011;16733;48.738;9.106;2022-07-29T05:33:28;2.42;;;1.23;;
29854;SDS011;16733;48.738;9.106;2022-07-29T05:35:54;1.88;;;1.35;;
29854;SDS011;16733;48.738;9.106;2022-07-29T05:38:19;2.40;;;1.38;;
29854;SDS011;16733;48.738;9.106;2022-07-29T05:40:45;1.27;;;1.02;;
29854;SDS011;16733;48.738;9.106;2022-07-29T05:43:11;2.97;;;1.63;;
29854;SDS011;16733;48.738;9.106;2022-07-29T05:48:59;1.48;;;1.33;;
29854;SDS011;16733;48.738;9.106;2022-07-29T05:51:24;2.60;;;1.52;;
29854;SDS011;16733;48.738;9.106;2022-07-29T05:57:19;2.53;;;1.60;;
29854;SDS011;16733;48.738;9.106;2022-07-29T05:59:46;1.80;;;1.40;;
29854;SDS011;16733;48.738;9.106;2022-07-29T06:02:12;1.80;;;1.40;;
29854;SDS011;16733;48.738;9.106;2022-07-29T06:07:59;2.88;;;1.55;;
29854;SDS011;16733;48.738;9.106;2022-07-29T06:10:25;7.60;;;1.65;;
29854;SDS011;16733;48.738;9.106;2022-07-29T06:12:51;2.58;;;1.20;;
29854;SDS011;16733;48.738;9.106;2022-07-29T06:15:17;3.92;;;1.63;;
29854;SDS011;16733;48.738;9.106;2022-07-29T06:17:43;4.15;;;1.55;;
29854;SDS011;16733;48.738;9.106;2022-07-29T06:20:09;2.75;;;1.55;;
29854;SDS011;16733;48.738;9.106;2022-07-29T06:22:35;2.33;;;1.35;;
29854;SDS011;16733;48.738;9.106;2022-07-29T06:25:01;1.77;;;1.40;;
29854;SDS011;16733;48.738;9.106;2022-07-29T06:27:27;4.75;;;1.40;;
29854;SDS011;16733;48.738;9.106;2022-07-29T06:29:53;3.22;;;1.75;;
29854;SDS011;16733;48.738;9.106;2022-07-29T06:32:18;3.00;;;1.55;;
29854;SDS011;16733;48.738;9.106;2022-07-29T06:34:44;1.77;;;1.23;;
29854;SDS011;16733;48.738;9.106;2022-07-29T06:37:10;3.20;;;1.50;;
29854;SDS011;16733;48.738;9.106;2022-07-29T06:42:57;3.00;;;1.60;;
29854;SDS011;16733;48.738;9.106;2022-07-29T06:45:23;2.20;;;1.52;;
29854;SDS011;16733;48.738;9.106;2022-07-29T06:47:49;3.05;;;1.75;;
29854;SDS011;16733;48.738;9.106;2022-07-29T06:53:37;3.75;;;1.67;;
29854;SDS011;16733;48.738;9.106;2022-07-29T06:56:03;2.90;;;1.65;;
29854;SDS011;16733;48.738;9.106;2022-07-29T07:01:52;4.30;;;2.20;;
29854;SDS011;16733;48.738;9.106;2022-07-29T07:04:18;2.45;;;1.77;;
29854;SDS011;16733;48.738;9.106;2022-07-29T07:06:43;4.78;;;1.55;;
29854;SDS011;16733;48.738;9.106;2022-07-29T07:09:09;4.20;;;1.83;;
29854;SDS011;16733;48.738;9.106;2022-07-29T07:11:34;3.38;;;1.60;;
29854;SDS011;16733;48.738;9.106;2022-07-29T07:14:00;8.00;;;1.70;;
29854;SDS011;16733;48.738;9.106;2022-07-29T07:16:26;3.03;;;1.67;;
29854;SDS011;16733;48.738;9.106;2022-07-29T07:18:51;2.63;;;1.75;;
29854;SDS011;16733;48.738;9.106;2022-07-29T07:21:17;3.42;;;1.88;;
29854;SDS011;16733;48.738;9.106;2022-07-29T07:23:43;3.63;;;1.90;;
29854;SDS011;16733;48.738;9.106;2022-07-29T07:26:08;5.97;;;2.17;;
29854;SDS011;16733;48.738;9.106;2022-07-29T07:35:19;3.10;;;1.98;;
29854;SDS011;16733;48.738;9.106;2022-07-29T07:37:44;4.20;;;1.65;;
29854;SDS011;16733;48.738;9.106;2022-07-29T07:40:10;1.95;;;1.67;;
29854;SDS011;16733;48.738;9.106;2022-07-29T07:42:37;1.88;;;1.63;;
29854;SDS011;16733;48.738;9.106;2022-07-29T07:45:03;2.92;;;1.88;;
29854;SDS011;16733;48.738;9.106;2022-07-29T07:47:31;4.93;;;1.92;;
29854;SDS011;16733;48.738;9.106;2022-07-29T07:49:56;1.52;;;1.35;;
29854;SDS011;16733;48.738;9.106;2022-07-29T07:52:22;3.10;;;1.80;;
29854;SDS011;16733;48.738;9.106;2022-07-29T07:54:48;2.35;;;1.65;;
29854;SDS011;16733;48.738;9.106;2022-07-29T07:57:14;7.97;;;1.70;;
29854;SDS011;16733;48.738;9.106;2022-07-29T07:59:40;4.07;;;1.98;;
29854;SDS011;16733;48.738;9.106;2022-07-29T08:02:06;1.88;;;1.67;;
29854;SDS011;16733;48.738;9.106;2022-07-29T08:04:32;3.70;;;1.67;;
29854;SDS011;16733;48.738;9.106;2022-07-29T08:06:58;2.42;;;1.85;;
29854;SDS011;16733;48.738;9.106;2022-07-29T08:12:47;4.10;;;1.70;;
29854;SDS011;16733;48.738;9.106;2022-07-29T08:15:13;7.80;;;1.70;;
29854;SDS011;16733;48.738;9.106;2022-07-29T08:17:38;2.00;;;1.75;;
29854;SDS011;16733;48.738;9.106;2022-07-29T08:20:04;3.70;;;1.58;;
29854;SDS011;16733;48.738;9.106;2022-07-29T08:22:30;3.42;;;1.98;;
29854;SDS011;16733;48.738;9.106;2022-07-29T08:24:56;2.47;;;1.73;;
29854;SDS011;16733;48.738;9.106;2022-07-29T08:27:21;2.28;;;1.73;;
29854;SDS011;16733;48.738;9.106;2022-07-29T08:29:47;2.58;;;1.70;;
29854;SDS011;16733;48.738;9.106;2022-07-29T08:35:35;2.45;;;1.90;;
29854;SDS011;16733;48.738;9.106;2022-07-29T08:38:01;1.83;;;1.67;;
29854;SDS011;16733;48.738;9.106;2022-07-29T08:43:50;2.83;;;1.70;;
29854;SDS011;16733;48.738;9.106;2022-07-29T08:46:17;2.50;;;1.80;;
29854;SDS011;16733;48.738;9.106;2022-07-29T08:52:05;3.45;;;1.65;;
29854;SDS011;16733;48.738;9.106;2022-07-29T08:54:32;3.50;;;2.30;;
29854;SDS011;16733;48.738;9.106;2022-07-29T08:56:58;27.75;;;3.42;;
29854;SDS011;16733;48.738;9.106;2022-07-29T09:02:57;4.90;;;2.13;;
29854;SDS011;16733;48.738;9.106;2022-07-29T09:08:46;5.95;;;1.90;;
29854;SDS011;16733;48.738;9.106;2022-07-29T09:11:12;1.58;;;1.48;;
29854;SDS011;16733;48.738;9.106;2022-07-29T09:13:38;5.13;;;1.70;;
29854;SDS011;16733;48.738;9.106;2022-07-29T09:19:36;2.40;;;1.83;;
29854;SDS011;16733;48.738;9.106;2022-07-29T09:22:03;2.42;;;1.90;;
29854;SDS011;16733;48.738;9.106;2022-07-29T09:24:53;3.85;;;1.98;;
29854;SDS011;16733;48.738;9.106;2022-07-29T09:27:23;2.42;;;1.90;;
29854;SDS011;16733;48.738;9.106;2022-07-29T09:30:02;2.65;;;1.77;;
29854;SDS011;16733;48.738;9.106;2022-07-29T09:38:30;3.17;;;2.15;;
29854;SDS011;16733;48.738;9.106;2022-07-29T09:40:57;5.47;;;2.00;;
29854;SDS011;16733;48.738;9.106;2022-07-29T09:43:24;4.88;;;2.00;;
29854;SDS011;16733;48.738;9.106;2022-07-29T09:45:49;7.32;;;2.33;;
29854;SDS011;16733;48.738;9.106;2022-07-29T09:48:17;2.78;;;1.83;;
29854;SDS011;16733;48.738;9.106;2022-07-29T09:50:48;2.35;;;1.70;;
29854;SDS011;16733;48.738;9.106;2022-07-29T09:55:59;3.63;;;1.95;;
29854;SDS011;16733;48.738;9.106;2022-07-29T09:58:25;4.90;;;1.98;;
29854;SDS011;16733;48.738;9.106;2022-07-29T10:00:52;2.47;;;1.90;;
29854;SDS011;16733;48.738;9.106;2022-07-29T10:03:18;3.08;;;2.22;;
29854;SDS011;16733;48.738;9.106;2022-07-29T10:05:44;3.58;;;1.98;;
29854;SDS011;16733;48.738;9.106;2022-07-29T10:11:32;3.70;;;2.17;;
29854;SDS011;16733;48.738;9.106;2022-07-29T10:13:58;5.63;;;1.58;;
29854;SDS011;16733;48.738;9.106;2022-07-29T10:16:24;3.25;;;2.10;;
29854;SDS011;16733;48.738;9.106;2022-07-29T10:18:50;1.77;;;1.63;;
29854;SDS011;16733;48.738;9.106;2022-07-29T10:21:16;2.42;;;1.75;;
29854;SDS011;16733;48.738;9.106;2022-07-29T10:23:42;2.45;;;2.05;;
29854;SDS011;16733;48.738;9.106;2022-07-29T10:26:10;3.17;;;1.90;;
29854;SDS011;16733;48.738;9.106;2022-07-29T10:28:35;3.03;;;1.90;;
29854;SDS011;16733;48.738;9.106;2022-07-29T10:31:03;2.53;;;1.67;;
29854;SDS011;16733;48.738;9.106;2022-07-29T10:33:36;4.72;;;2.13;;
29854;SDS011;16733;48.738;9.106;2022-07-29T10:49:17;19.40;;;3.60;;
29854;SDS011;16733;48.738;9.106;2022-07-29T10:55:35;17.98;;;3.92;;
29854;SDS011;16733;48.738;9.106;2022-07-29T11:00:40;6.55;;;3.03;;
29854;SDS011;16733;48.738;9.106;2022-07-29T11:03:06;6.50;;;3.28;;
29854;SDS011;16733;48.738;9.106;2022-07-29T11:05:51;0.10;;;0.10;;
29854;SDS011;16733;48.738;9.106;2022-07-29T11:08:21;0.00;;;0.00;;
29854;SDS011;16733;48.738;9.106;2022-07-29T11:10:51;0.43;;;0.05;;
29854;SDS011;16733;48.738;9.106;2022-07-29T11:16:11;0.00;;;0.00;;
29854;SDS011;16733;48.738;9.106;2022-07-29T11:19:05;0.10;;;0.10;;
29854;SDS011;16733;48.738;9.106;2022-07-29T11:21:42;0.00;;;0.00;;
29854;SDS011;16733;48.738;9.106;2022-07-29T11:24:44;0.00;;;0.00;;
29854;SDS011;16733;48.738;9.106;2022-07-29T11:30:47;0.00;;;0.00;;
29854;SDS011;16733;48.738;9.106;2022-07-29T11:33:27;0.00;;;0.00;;
29854;SDS011;16733;48.738;9.106;2022-07-29T11:36:07;0.00;;;0.00;;
29854;SDS011;16733;48.738;9.106;2022-07-29T11:38:35;0.00;;;0.00;;
29854;SDS011;16733;48.738;9.106;2022-07-29T11:47:13;0.00;;;0.00;;
29854;SDS011;16733;48.738;9.106;2022-07-29T11:49:45;0.00;;;0.00;;
29854;SDS011;16733;48.738;9.106;2022-07-29T11:52:11;0.00;;;0.00;;
29854;SDS011;16733;48.738;9.106;2022-07-29T11:57:59;0.00;;;0.00;;
29854;SDS011;16733;48.738;9.106;2022-07-29T12:03:47;0.00;;;0.00;;
29854;SDS011;16733;48.738;9.106;2022-07-29T12:06:12;0.00;;;0.00;;
29854;SDS011;16733;48.738;9.106;2022-07-29T12:08:42;0.10;;;0.10;;
29854;SDS011;16733;48.738;9.106;2022-07-29T12:11:14;0.00;;;0.00;;
29854;SDS011;16733;48.738;9.106;2022-07-29T12:13:42;0.00;;;0.00;;
29854;SDS011;16733;48.738;9.106;2022-07-29T12:16:07;0.00;;;0.00;;
29854;SDS011;16733;48.738;9.106;2022-07-29T12:18:33;0.00;;;0.00;;
29854;SDS011;16733;48.738;9.106;2022-07-29T12:20:59;0.00;;;0.00;;
29854;SDS011;16733;48.738;9.106;2022-07-29T12:26:51;0.00;;;0.00;;
29854;SDS011;16733;48.738;9.106;2022-07-29T12:29:21;0.00;;;0.00;;
29854;SDS011;16733;48.738;9.106;2022-07-29T12:31:50;0.00;;;0.00;;
29854;SDS011;16733;48.738;9.106;2022-07-29T12:34:19;0.00;;;0.00;;
29854;SDS011;16733;48.738;9.106;2022-07-29T12:36:47;0.00;;;0.00;;
29854;SDS011;16733;48.738;9.106;2022-07-29T12:39:14;0.00;;;0.00;;
29854;SDS011;16733;48.738;9.106;2022-07-29T12:41:40;0.00;;;0.00;;
29854;SDS011;16733;48.738;9.106;2022-07-29T12:44:06;0.00;;;0.00;;
29854;SDS011;16733;48.738;9.106;2022-07-29T12:46:32;0.00;;;0.00;;
29854;SDS011;16733;48.738;9.106;2022-07-29T12:48:57;0.00;;;0.00;;
29854;SDS011;16733;48.738;9.106;2022-07-29T12:51:30;0.00;;;0.00;;
29854;SDS011;16733;48.738;9.106;2022-07-29T12:54:02;0.00;;;0.00;;
29854;SDS011;16733;48.738;9.106;2022-07-29T12:56:35;0.00;;;0.00;;
29854;SDS011;16733;48.738;9.106;2022-07-29T12:59:18;0.00;;;0.00;;
29854;SDS011;16733;48.738;9.106;2022-07-29T13:01:46;0.00;;;0.00;;
29854;SDS011;16733;48.738;9.106;2022-07-29T13:04:27;0.00;;;0.00;;
29854;SDS011;16733;48.738;9.106;2022-07-29T13:07:03;0.00;;;0.00;;
29854;SDS011;16733;48.738;9.106;2022-07-29T13:13:04;0.00;;;0.00;;
29854;SDS011;16733;48.738;9.106;2022-07-29T13:15:38;0.00;;;0.00;;
29854;SDS011;16733;48.738;9.106;2022-07-29T13:18:34;0.00;;;0.00;;
29854;SDS011;16733;48.738;9.106;2022-07-29T13:21:10;0.00;;;0.00;;
29854;SDS011;16733;48.738;9.106;2022-07-29T13:23:37;0.10;;;0.10;;
29854;SDS011;16733;48.738;9.106;2022-07-29T13:29:25;0.00;;;0.00;;
29854;SDS011;16733;48.738;9.106;2022-07-29T13:31:51;0.00;;;0.00;;
29854;SDS011;16733;48.738;9.106;2022-07-29T13:37:39;0.00;;;0.00;;
29854;SDS011;16733;48.738;9.106;2022-07-29T13:40:06;0.10;;;0.10;;
29854;SDS011;16733;48.738;9.106;2022-07-29T13:45:55;0.00;;;0.00;;
29854;SDS011;16733;48.738;9.106;2022-07-29T13:48:21;0.00;;;0.00;;
29854;SDS011;16733;48.738;9.106;2022-07-29T13:50:46;0.00;;;0.00;;
29854;SDS011;16733;48.738;9.106;2022-07-29T13:53:12;0.00;;;0.00;;
29854;SDS011;16733;48.738;9.106;2022-07-29T13:55:38;0.00;;;0.00;;
29854;SDS011;16733;48.738;9.106;2022-07-29T14:01:26;0.00;;;0.00;;
29854;SDS011;16733;48.738;9.106;2022-07-29T14:07:14;0.00;;;0.00;;
29854;SDS011;16733;48.738;9.106;2022-07-29T14:13:03;0.00;;;0.00;;
29854;SDS011;16733;48.738;9.106;2022-07-29T14:15:29;0.00;;;0.00;;
29854;SDS011;16733;48.738;9.106;2022-07-29T14:21:16;0.00;;;0.00;;
29854;SDS011;16733;48.738;9.106;2022-07-29T14:23:42;0.00;;;0.00;;
29854;SDS011;16733;48.738;9.106;2022-07-29T14:26:07;0.00;;;0.00;;
29854;SDS011;16733;48.738;9.106;2022-07-29T14:28:33;0.00;;;0.00;;
29854;SDS011;16733;48.738;9.106;2022-07-29T14:34:21;0.00;;;0.00;;
29854;SDS011;16733;48.738;9.106;2022-07-29T14:40:09;0.00;;;0.00;;
29854;SDS011;16733;48.738;9.106;2022-07-29T14:42:36;0.00;;;0.00;;
29854;SDS011;16733;48.738;9.106;2022-07-29T14:48:24;0.00;;;0.00;;
29854;SDS011;16733;48.738;9.106;2022-07-29T14:50:49;0.00;;;0.00;;
29854;SDS011;16733;48.738;9.106;2022-07-29T14:53:15;0.00;;;0.00;;
29854;SDS011;16733;48.738;9.106;2022-07-29T15:02:25;0.00;;;0.00;;
29854;SDS011;16733;48.738;9.106;2022-07-29T15:11:34;0.00;;;0.00;;
29854;SDS011;16733;48.738;9.106;2022-07-29T15:14:00;0.00;;;0.00;;
29854;SDS011;16733;48.738;9.106;2022-07-29T15:16:26;0.00;;;0.00;;
29854;SDS011;16733;48.738;9.106;2022-07-29T15:18:51;0.00;;;0.00;;
29854;SDS011;16733;48.738;9.106;2022-07-29T15:21:17;0.00;;;0.00;;
29854;SDS011;16733;48.738;9.106;2022-07-29T15:23:42;0.00;;;0.00;;
29854;SDS011;16733;48.738;9.106;2022-07-29T15:26:12;0.00;;;0.00;;
29854;SDS011;16733;48.738;9.106;2022-07-29T15:28:37;0.00;;;0.00;;
29854;SDS011;16733;48.738;9.106;2022-07-29T15:31:03;0.00;;;0.00;;
29854;SDS011;16733;48.738;9.106;2022-07-29T15:33:28;0.00;;;0.00;;
29854;SDS011;16733;48.738;9.106;2022-07-29T15:35:55;0.00;;;0.00;;
29854;SDS011;16733;48.738;9.106;2022-07-29T15:38:21;0.00;;;0.00;;
29854;SDS011;16733;48.738;9.106;2022-07-29T15:40:47;0.00;;;0.00;;
29854;SDS011;16733;48.738;9.106;2022-07-29T15:46:34;0.00;;;0.00;;
29854;SDS011;16733;48.738;9.106;2022-07-29T15:49:18;0.00;;;0.00;;
29854;SDS011;16733;48.738;9.106;2022-07-29T15:51:44;0.00;;;0.00;;
29854;SDS011;16733;48.738;9.106;2022-07-29T15:54:09;0.00;;;0.00;;
29854;SDS011;16733;48.738;9.106;2022-07-29T15:56:38;0.00;;;0.00;;
29854;SDS011;16733;48.738;9.106;2022-07-29T15:59:03;0.00;;;0.00;;
29854;SDS011;16733;48.738;9.106;2022-07-29T16:01:29;0.00;;;0.00;;
29854;SDS011;16733;48.738;9.106;2022-07-29T16:03:55;0.00;;;0.00;;
29854;SDS011;16733;48.738;9.106;2022-07-29T16:09:44;0.05;;;0.05;;
29854;SDS011;16733;48.738;9.106;2022-07-29T16:12:09;0.00;;;0.00;;
29854;SDS011;16733;48.738;9.106;2022-07-29T16:17:57;0.00;;;0.00;;
29854;SDS011;16733;48.738;9.106;2022-07-29T16:20:23;0.00;;;0.00;;
29854;SDS011;16733;48.738;9.106;2022-07-29T16:22:49;0.00;;;0.00;;
29854;SDS011;16733;48.738;9.106;2022-07-29T16:28:36;0.00;;;0.00;;
29854;SDS011;16733;48.738;9.106;2022-07-29T16:31:02;0.00;;;0.00;;
29854;SDS011;16733;48.738;9.106;2022-07-29T16:33:28;0.00;;;0.00;;
29854;SDS011;16733;48.738;9.106;2022-07-29T16:35:53;0.00;;;0.00;;
29854;SDS011;16733;48.738;9.106;2022-07-29T16:38:19;0.03;;;0.00;;
29854;SDS011;16733;48.738;9.106;2022-07-29T16:44:07;0.00;;;0.00;;
29854;SDS011;16733;48.738;9.106;2022-07-29T16:46:33;0.00;;;0.00;;
29854;SDS011;16733;48.738;9.106;2022-07-29T16:52:23;0.00;;;0.00;;
29854;SDS011;16733;48.738;9.106;2022-07-29T16:54:48;0.00;;;0.00;;
29854;SDS011;16733;48.738;9.106;2022-07-29T16:57:14;0.00;;;0.00;;
29854;SDS011;16733;48.738;9.106;2022-07-29T16:59:40;0.00;;;0.00;;
29854;SDS011;16733;48.738;9.106;2022-07-29T17:02:06;0.00;;;0.00;;
29854;SDS011;16733;48.738;9.106;2022-07-29T17:04:31;0.00;;;0.00;;
29854;SDS011;16733;48.738;9.106;2022-07-29T17:07:12;0.00;;;0.00;;
29854;SDS011;16733;48.738;9.106;2022-07-29T17:09:39;0.00;;;0.00;;
29854;SDS011;16733;48.738;9.106;2022-07-29T17:12:05;0.00;;;0.00;;
29854;SDS011;16733;48.738;9.106;2022-07-29T17:14:31;0.00;;;0.00;;
29854;SDS011;16733;48.738;9.106;2022-07-29T17:16:58;0.00;;;0.00;;
29854;SDS011;16733;48.738;9.106;2022-07-29T17:19:25;0.00;;;0.00;;
29854;SDS011;16733;48.738;9.106;2022-07-29T17:21:51;0.00;;;0.00;;
29854;SDS011;16733;48.738;9.106;2022-07-29T17:24:17;0.00;;;0.00;;
29854;SDS011;16733;48.738;9.106;2022-07-29T17:26:43;0.00;;;0.00;;
29854;SDS011;16733;48.738;9.106;2022-07-29T17:29:09;0.00;;;0.00;;
29854;SDS011;16733;48.738;9.106;2022-07-29T17:31:35;0.00;;;0.00;;
29854;SDS011;16733;48.738;9.106;2022-07-29T17:37:23;0.00;;;0.00;;
29854;SDS011;16733;48.738;9.106;2022-07-29T17:39:49;0.00;;;0.00;;
29854;SDS011;16733;48.738;9.106;2022-07-29T17:42:15;0.00;;;0.00;;
29854;SDS011;16733;48.738;9.106;2022-07-29T17:48:02;6.15;;;2.75;;
29854;SDS011;16733;48.738;9.106;2022-07-29T17:50:28;4.35;;;2.72;;
29854;SDS011;16733;48.738;9.106;2022-07-29T17:52:54;5.22;;;3.10;;
29854;SDS011;16733;48.738;9.106;2022-07-29T17:55:19;4.28;;;2.67;;
29854;SDS011;16733;48.738;9.106;2022-07-29T17:57:45;8.63;;;3.10;;
29854;SDS011;16733;48.738;9.106;2022-07-29T18:00:10;4.18;;;2.83;;
29854;SDS011;16733;48.738;9.106;2022-07-29T18:02:37;4.05;;;2.85;;
29854;SDS011;16733;48.738;9.106;2022-07-29T18:05:03;4.10;;;2.80;;
29854;SDS011;16733;48.738;9.106;2022-07-29T18:07:29;3.55;;;2.78;;
29854;SDS011;16733;48.738;9.106;2022-07-29T18:09:54;6.07;;;2.78;;
29854;SDS011;16733;48.738;9.106;2022-07-29T18:12:20;4.15;;;2.72;;
29854;SDS011;16733;48.738;9.106;2022-07-29T18:18:08;6.00;;;2.38;;
29854;SDS011;16733;48.738;9.106;2022-07-29T18:20:34;11.25;;;2.63;;
29854;SDS011;16733;48.738;9.106;2022-07-29T18:29:43;2.53;;;2.05;;
29854;SDS011;16733;48.738;9.106;2022-07-29T18:35:31;3.40;;;2.38;;
29854;SDS011;16733;48.738;9.106;2022-07-29T18:37:57;3.22;;;2.35;;
29854;SDS011;16733;48.738;9.106;2022-07-29T18:40:22;3.42;;;2.50;;
29854;SDS011;16733;48.738;9.106;2022-07-29T18:43:08;4.78;;;2.75;;
29854;SDS011;16733;48.738;9.106;2022-07-29T18:45:34;4.75;;;2.50;;
29854;SDS011;16733;48.738;9.106;2022-07-29T18:48:00;5.32;;;2.20;;
29854;SDS011;16733;48.738;9.106;2022-07-29T18:50:26;2.53;;;1.90;;
29854;SDS011;16733;48.738;9.106;2022-07-29T18:52:52;3.53;;;2.40;;
29854;SDS011;16733;48.738;9.106;2022-07-29T18:55:18;3.17;;;2.13;;
29854;SDS011;16733;48.738;9.106;2022-07-29T18:57:44;2.60;;;2.30;;
29854;SDS011;16733;48.738;9.106;2022-07-29T19:00:10;5.75;;;2.10;;
29854;SDS011;16733;48.738;9.106;2022-07-29T19:02:36;4.07;;;2.38;;
29854;SDS011;16733;48.738;9.106;2022-07-29T19:05:05;3.67;;;2.30;;
29854;SDS011;16733;48.738;9.106;2022-07-29T19:17:39;2.38;;;1.98;;
29854;SDS011;16733;48.738;9.106;2022-07-29T19:20:05;2.97;;;2.03;;
29854;SDS011;16733;48.738;9.106;2022-07-29T19:22:33;2.85;;;1.77;;
29854;SDS011;16733;48.738;9.106;2022-07-29T19:24:59;7.10;;;2.40;;
29854;SDS011;16733;48.738;9.106;2022-07-29T19:27:25;3.45;;;2.05;;